createdAt,value
2022-11-14T00:00:59.696Z,17.67
2022-11-14T00:03:26.119Z,15.13
2022-11-14T00:05:52.558Z,13.40
2022-11-14T00:08:25.270Z,12.80
2022-11-14T00:10:52.141Z,16.03
2022-11-14T00:13:21.016Z,16.93
2022-11-14T00:15:54.246Z,15.47
2022-11-14T00:18:21.042Z,15.87
2022-11-14T00:20:49.050Z,14.53
2022-11-14T00:23:15.534Z,13.87
2022-11-14T00:25:43.105Z,18.50
2022-11-14T00:28:09.546Z,17.00
2022-11-14T00:30:35.948Z,15.33
2022-11-14T00:33:02.359Z,13.60
2022-11-14T00:35:28.768Z,16.03
2022-11-14T00:37:55.142Z,14.40
2022-11-14T00:40:21.544Z,16.40
2022-11-14T00:42:47.941Z,13.43
2022-11-14T00:45:14.468Z,12.57
2022-11-14T00:47:40.878Z,11.40
2022-11-14T00:50:07.675Z,12.30
2022-11-14T00:52:34.148Z,12.83
2022-11-14T00:55:00.656Z,11.83
2022-11-14T00:57:27.087Z,12.27
2022-11-14T00:59:55.680Z,10.50
2022-11-14T01:02:22.602Z,15.40
2022-11-14T01:04:49.057Z,10.80
2022-11-14T01:07:15.507Z,21.40
2022-11-14T01:09:41.972Z,11.40
2022-11-14T01:12:08.470Z,14.77
2022-11-14T01:14:34.934Z,12.00
2022-11-14T01:17:01.322Z,11.60
2022-11-14T01:19:27.787Z,12.37
2022-11-14T01:21:54.174Z,11.90
2022-11-14T01:24:20.591Z,11.77
2022-11-14T01:26:46.990Z,14.17
2022-11-14T01:29:13.538Z,14.20
2022-11-14T01:31:39.969Z,12.47
2022-11-14T01:34:06.382Z,13.67
2022-11-14T01:36:32.832Z,11.10
2022-11-14T01:38:59.226Z,14.00
2022-11-14T01:41:25.689Z,11.50
2022-11-14T01:43:52.154Z,13.60
2022-11-14T01:46:32.847Z,10.00
2022-11-14T01:49:22.621Z,10.30
2022-11-14T01:51:54.560Z,11.47
2022-11-14T01:54:30.558Z,11.50
2022-11-14T01:57:00.046Z,13.17
2022-11-14T01:59:34.295Z,12.70
2022-11-14T02:02:06.276Z,13.77
2022-11-14T02:04:38.028Z,12.40
2022-11-14T02:07:06.297Z,11.10
2022-11-14T02:09:37.289Z,10.53
2022-11-14T02:12:07.103Z,11.43
2022-11-14T02:14:35.716Z,14.63
2022-11-14T02:17:27.803Z,10.23
2022-11-14T02:19:54.756Z,10.10
2022-11-14T02:22:21.621Z,10.13
2022-11-14T02:24:48.027Z,10.70
2022-11-14T02:27:15.243Z,9.90
2022-11-14T02:29:42.725Z,11.37
2022-11-14T02:32:10.911Z,12.00
2022-11-14T02:34:38.641Z,10.63
2022-11-14T02:37:05.369Z,10.40
2022-11-14T02:39:31.811Z,12.73
2022-11-14T02:41:58.206Z,12.20
2022-11-14T02:44:24.664Z,9.70
2022-11-14T02:46:51.165Z,11.10
2022-11-14T02:49:17.723Z,12.33
2022-11-14T02:51:44.171Z,12.17
2022-11-14T02:54:10.610Z,12.23
2022-11-14T02:56:37.013Z,12.97
2022-11-14T02:59:04.301Z,10.80
2022-11-14T03:01:30.883Z,12.27
2022-11-14T03:03:57.337Z,11.27
2022-11-14T03:06:23.744Z,15.00
2022-11-14T03:08:50.153Z,12.27
2022-11-14T03:11:16.568Z,16.90
2022-11-14T03:13:43.042Z,9.23
2022-11-14T03:16:12.048Z,13.10
2022-11-14T03:18:38.598Z,11.17
2022-11-14T03:21:17.031Z,10.30
2022-11-14T03:23:43.462Z,11.50
2022-11-14T03:26:11.718Z,13.80
2022-11-14T03:28:39.162Z,11.13
2022-11-14T03:31:06.817Z,11.90
2022-11-14T03:33:34.892Z,10.90
2022-11-14T03:36:01.795Z,11.23
2022-11-14T03:38:29.647Z,10.90
2022-11-14T03:40:59.148Z,15.50
2022-11-14T03:43:26.445Z,8.67
2022-11-14T03:45:52.877Z,9.60
2022-11-14T03:48:19.278Z,10.90
2022-11-14T03:50:45.732Z,10.10
2022-11-14T03:53:12.167Z,10.17
2022-11-14T03:55:39.302Z,10.67
2022-11-14T03:58:05.852Z,10.60
2022-11-14T04:00:32.484Z,10.90
2022-11-14T04:02:59.000Z,11.70
2022-11-14T04:05:25.554Z,10.00
2022-11-14T04:07:52.392Z,11.83
2022-11-14T04:10:18.854Z,10.93
2022-11-14T04:12:52.527Z,11.37
2022-11-14T04:15:19.791Z,10.07
2022-11-14T04:17:46.822Z,11.10
2022-11-14T04:20:15.372Z,11.63
2022-11-14T04:22:41.892Z,11.87
2022-11-14T04:25:09.546Z,11.70
2022-11-14T04:27:36.187Z,10.80
2022-11-14T04:30:03.360Z,11.00
2022-11-14T04:32:30.039Z,11.13
2022-11-14T04:34:56.436Z,10.10
2022-11-14T04:37:22.944Z,9.80
2022-11-14T04:39:49.409Z,10.90
2022-11-14T04:42:15.825Z,14.07
2022-11-14T04:44:42.291Z,11.43
2022-11-14T04:47:08.803Z,9.87
2022-11-14T04:49:35.464Z,10.50
2022-11-14T04:52:01.956Z,10.20
2022-11-14T04:54:28.412Z,9.93
2022-11-14T04:56:54.812Z,11.47
2022-11-14T04:59:21.443Z,10.67
2022-11-14T05:01:48.008Z,11.13
2022-11-14T05:04:14.815Z,11.43
2022-11-14T05:06:41.415Z,12.60
2022-11-14T05:09:08.439Z,11.67
2022-11-14T05:11:34.889Z,12.33
2022-11-14T05:14:01.289Z,11.50
2022-11-14T05:16:27.685Z,13.00
2022-11-14T05:18:54.994Z,14.43
2022-11-14T05:21:21.555Z,13.13
2022-11-14T05:23:47.985Z,12.77
2022-11-14T05:26:16.361Z,13.40
2022-11-14T05:28:43.011Z,14.60
2022-11-14T05:31:17.813Z,13.50
2022-11-14T05:33:45.662Z,14.80
2022-11-14T05:36:14.431Z,14.23
2022-11-14T05:38:41.593Z,14.60
2022-11-14T05:41:15.876Z,13.53
2022-11-14T05:43:42.876Z,13.47
2022-11-14T05:46:12.294Z,19.00
2022-11-14T05:48:39.639Z,15.03
2022-11-14T05:51:07.164Z,14.70
2022-11-14T05:53:34.643Z,13.60
2022-11-14T05:56:05.874Z,14.10
2022-11-14T05:58:33.674Z,15.53
2022-11-14T06:01:05.683Z,14.53
2022-11-14T06:03:36.962Z,19.43
2022-11-14T06:06:05.988Z,13.40
2022-11-14T06:08:33.306Z,14.83
2022-11-14T06:11:07.805Z,19.60
2022-11-14T06:13:34.985Z,15.03
2022-11-14T06:16:10.876Z,16.03
2022-11-14T06:18:38.001Z,14.60
2022-11-14T06:21:11.637Z,17.10
2022-11-14T06:23:38.087Z,16.07
2022-11-14T06:26:06.690Z,14.80
2022-11-14T06:28:33.538Z,19.63
2022-11-14T06:31:01.433Z,16.37
2022-11-14T06:33:29.386Z,17.00
2022-11-14T06:36:05.365Z,18.83
2022-11-14T06:38:33.326Z,22.33
2022-11-14T06:41:08.341Z,19.67
2022-11-14T06:43:46.272Z,22.70
2022-11-14T06:46:15.474Z,20.87
2022-11-14T06:48:43.107Z,18.00
2022-11-14T06:51:11.380Z,22.93
2022-11-14T06:53:38.341Z,16.40
2022-11-14T06:56:20.209Z,18.60
2022-11-14T06:58:49.059Z,17.13
2022-11-14T07:01:24.122Z,18.53
2022-11-14T07:03:50.697Z,25.07
2022-11-14T07:06:26.303Z,18.50
2022-11-14T07:08:54.151Z,17.50
2022-11-14T07:11:29.375Z,16.97
2022-11-14T07:13:58.428Z,18.27
2022-11-14T07:16:29.419Z,19.00
2022-11-14T07:18:59.660Z,17.80
2022-11-14T07:21:28.227Z,19.33
2022-11-14T07:23:55.017Z,16.27
2022-11-14T07:26:21.449Z,22.60
2022-11-14T07:28:52.230Z,19.00
2022-11-14T07:31:20.631Z,17.33
2022-11-14T07:33:47.585Z,20.80
2022-11-14T07:36:15.481Z,19.07
2022-11-14T07:38:42.383Z,18.30
2022-11-14T07:41:12.679Z,19.30
2022-11-14T07:43:39.768Z,47.50
2022-11-14T07:46:10.175Z,27.37
2022-11-14T07:48:36.628Z,25.97
2022-11-14T07:51:05.649Z,22.10
2022-11-14T07:53:33.268Z,24.90
2022-11-14T07:56:05.962Z,27.87
2022-11-14T07:58:34.730Z,27.43
2022-11-14T08:01:02.284Z,29.47
2022-11-14T08:03:29.053Z,26.00
2022-11-14T08:06:08.027Z,22.83
2022-11-14T08:08:34.938Z,26.90
2022-11-14T08:11:02.314Z,24.83
2022-11-14T08:13:32.788Z,23.47
2022-11-14T08:16:09.097Z,23.30
2022-11-14T08:18:37.448Z,21.13
2022-11-14T08:21:05.004Z,25.47
2022-11-14T08:23:31.458Z,21.80
2022-11-14T08:26:01.182Z,24.47
2022-11-14T08:28:28.427Z,22.50
2022-11-14T08:31:04.647Z,26.30
2022-11-14T08:33:31.620Z,30.13
2022-11-14T08:36:05.319Z,33.33
2022-11-14T08:38:33.724Z,30.40
2022-11-14T08:41:01.167Z,31.07
2022-11-14T08:43:27.842Z,34.90
2022-11-14T08:46:01.471Z,37.00
2022-11-14T08:48:30.001Z,31.73
2022-11-14T08:50:56.657Z,35.13
2022-11-14T08:53:23.254Z,32.27
2022-11-14T08:55:49.780Z,33.00
2022-11-14T08:58:16.320Z,36.63
2022-11-14T09:00:42.866Z,31.70
2022-11-14T09:03:11.765Z,32.00
2022-11-14T09:05:38.285Z,33.30
2022-11-14T09:08:04.902Z,32.10
2022-11-14T09:10:31.656Z,34.33
2022-11-14T09:12:59.335Z,34.57
2022-11-14T09:15:28.214Z,33.20
2022-11-14T09:17:56.223Z,33.47
2022-11-14T09:20:32.243Z,35.47
2022-11-14T09:23:02.052Z,34.90
2022-11-14T09:25:32.110Z,35.50
2022-11-14T09:28:03.111Z,35.80
2022-11-14T09:30:29.535Z,37.90
2022-11-14T09:33:02.104Z,34.77
2022-11-14T09:35:31.356Z,38.33
2022-11-14T09:38:06.782Z,34.70
2022-11-14T09:40:44.931Z,36.30
2022-11-14T09:43:30.466Z,37.10
2022-11-14T09:45:57.178Z,35.87
2022-11-14T09:48:30.023Z,35.30
2022-11-14T09:51:07.110Z,32.70
2022-11-14T09:53:56.636Z,34.57
2022-11-14T09:56:25.635Z,39.23
2022-11-14T09:58:54.990Z,30.10
2022-11-14T10:01:33.711Z,45.73
2022-11-14T10:04:36.494Z,27.60
2022-11-14T10:07:21.865Z,25.80
2022-11-14T10:09:58.822Z,27.90
2022-11-14T10:12:51.299Z,27.57
2022-11-14T10:15:23.978Z,26.90
2022-11-14T10:18:19.867Z,50.60
2022-11-14T10:20:56.088Z,37.53
2022-11-14T10:23:47.253Z,31.40
2022-11-14T10:26:33.069Z,64.20
2022-11-14T10:29:19.440Z,22.23
2022-11-14T10:32:04.078Z,23.77
2022-11-14T10:34:36.251Z,39.03
2022-11-14T10:37:18.534Z,21.70
2022-11-14T10:39:51.415Z,21.13
2022-11-14T10:42:28.334Z,18.90
2022-11-14T10:45:07.503Z,19.33
2022-11-14T10:47:40.904Z,23.50
2022-11-14T10:50:37.864Z,23.00
2022-11-14T10:53:18.189Z,26.30
2022-11-14T10:56:03.610Z,27.67
2022-11-14T10:58:31.214Z,24.57
2022-11-14T11:01:36.779Z,28.23
2022-11-14T11:04:21.662Z,33.97
2022-11-14T11:06:49.883Z,28.40
2022-11-14T11:09:55.424Z,27.13
2022-11-14T11:12:24.772Z,26.83
2022-11-14T11:15:09.872Z,26.47
2022-11-14T11:17:42.783Z,26.77
2022-11-14T11:20:27.357Z,24.70
2022-11-14T11:23:09.878Z,29.40
2022-11-14T11:25:38.226Z,24.17
2022-11-14T11:28:13.431Z,27.33
2022-11-14T11:30:40.798Z,26.07
2022-11-14T11:33:38.107Z,24.77
2022-11-14T11:36:10.821Z,28.60
2022-11-14T11:38:37.291Z,28.60
2022-11-14T11:42:07.170Z,26.00
2022-11-14T11:44:19.891Z,29.13
2022-11-14T11:46:57.544Z,27.97
2022-11-14T11:49:38.937Z,24.97
2022-11-14T11:52:13.085Z,27.93
2022-11-14T11:54:53.999Z,28.87
2022-11-14T11:57:28.265Z,27.80
2022-11-14T12:00:23.535Z,27.57
2022-11-14T12:02:52.929Z,24.77
2022-11-14T12:05:41.983Z,27.60
2022-11-14T12:08:26.717Z,29.30
2022-11-14T12:10:54.159Z,28.30
2022-11-14T12:13:26.909Z,25.93
2022-11-14T12:16:25.224Z,25.77
2022-11-14T12:18:57.582Z,22.97
2022-11-14T12:22:21.302Z,28.80
2022-11-14T12:24:56.411Z,25.60
2022-11-14T12:27:25.666Z,25.93
2022-11-14T12:30:08.818Z,27.57
2022-11-14T12:32:43.632Z,26.37
2022-11-14T12:35:20.714Z,24.50
2022-11-14T12:37:55.221Z,22.20
2022-11-14T12:40:26.975Z,24.20
2022-11-14T12:42:53.598Z,27.47
2022-11-14T12:45:42.891Z,28.40
2022-11-14T12:48:15.102Z,23.60
2022-11-14T12:50:43.171Z,24.13
2022-11-14T12:53:37.534Z,23.53
2022-11-14T12:56:28.867Z,23.83
2022-11-14T12:59:37.174Z,26.03
2022-11-14T13:02:26.815Z,22.50
2022-11-14T13:05:12.020Z,26.27
2022-11-14T13:08:07.741Z,24.97
2022-11-14T13:10:39.728Z,27.43
2022-11-14T13:13:30.605Z,26.07
2022-11-14T13:16:17.495Z,27.03
2022-11-14T13:19:19.627Z,25.97
2022-11-14T13:22:10.850Z,26.33
2022-11-14T13:24:57.514Z,28.70
2022-11-14T13:27:52.235Z,26.20
2022-11-14T13:30:16.491Z,28.33
2022-11-14T13:32:42.864Z,28.03
2022-11-14T13:35:18.476Z,30.30
2022-11-14T13:37:56.902Z,26.70
2022-11-14T13:40:33.074Z,29.03
2022-11-14T13:43:12.750Z,25.57
2022-11-14T13:45:50.722Z,27.80
2022-11-14T13:48:26.205Z,28.60
2022-11-14T13:51:10.247Z,26.30
2022-11-14T13:53:45.938Z,27.33
2022-11-14T13:56:36.657Z,26.50
2022-11-14T13:59:30.633Z,25.20
2022-11-14T14:02:15.468Z,29.33
2022-11-14T14:05:35.841Z,26.67
2022-11-14T14:08:24.126Z,28.40
2022-11-14T14:10:53.471Z,25.63
2022-11-14T14:13:43.421Z,25.77
2022-11-14T14:16:34.264Z,23.80
2022-11-14T14:19:12.944Z,26.10
2022-11-14T14:22:08.477Z,22.00
2022-11-14T14:24:51.350Z,26.73
2022-11-14T14:27:37.735Z,26.63
2022-11-14T14:30:11.099Z,23.60
2022-11-14T14:32:37.944Z,24.50
2022-11-14T14:35:25.140Z,25.33
2022-11-14T14:37:53.752Z,25.60
2022-11-14T14:40:26.540Z,27.40
2022-11-14T14:42:54.496Z,28.67
2022-11-14T14:45:23.670Z,23.70
2022-11-14T14:47:59.554Z,25.30
2022-11-14T14:50:39.971Z,26.03
2022-11-14T14:53:07.046Z,23.57
2022-11-14T14:55:36.146Z,26.83
2022-11-14T14:58:27.688Z,26.50
2022-11-14T15:01:14.992Z,26.70
2022-11-14T15:03:48.907Z,24.30
2022-11-14T15:06:29.889Z,27.10
2022-11-14T15:08:59.644Z,25.10
2022-11-14T15:11:32.243Z,28.77
2022-11-14T15:14:00.310Z,26.37
2022-11-14T15:16:28.344Z,29.20
2022-11-14T15:18:56.710Z,26.80
2022-11-14T15:21:28.553Z,26.60
2022-11-14T15:24:12.478Z,27.67
2022-11-14T15:26:39.081Z,28.93
2022-11-14T15:29:07.836Z,28.50
2022-11-14T15:31:36.005Z,26.00
2022-11-14T15:34:32.902Z,28.03
2022-11-14T15:37:14.601Z,27.10
2022-11-14T15:39:41.985Z,29.47
2022-11-14T15:42:23.478Z,27.00
2022-11-14T15:44:50.843Z,29.53
2022-11-14T15:47:36.744Z,26.80
2022-11-14T15:50:05.446Z,28.63
2022-11-14T15:52:49.160Z,28.87
2022-11-14T15:55:21.164Z,26.37
2022-11-14T15:57:51.989Z,27.20
2022-11-14T16:00:27.254Z,28.03
2022-11-14T16:02:57.050Z,25.27
2022-11-14T16:05:29.326Z,28.93
2022-11-14T16:07:56.554Z,28.33
2022-11-14T16:10:27.610Z,29.20
2022-11-14T16:12:54.333Z,28.63
2022-11-14T16:15:21.345Z,30.20
2022-11-14T16:17:50.066Z,28.30
2022-11-14T16:20:20.817Z,27.00
2022-11-14T16:22:49.002Z,29.57
2022-11-14T16:25:24.075Z,30.37
2022-11-14T16:27:50.513Z,27.20
2022-11-14T16:30:18.899Z,26.97
2022-11-14T16:32:47.758Z,26.80
2022-11-14T16:35:20.114Z,26.37
2022-11-14T16:37:47.553Z,29.50
2022-11-14T16:40:23.479Z,27.70
2022-11-14T16:42:50.424Z,27.50
2022-11-14T16:45:20.124Z,31.37
2022-11-14T16:47:47.629Z,28.90
2022-11-14T16:50:14.225Z,29.00
2022-11-14T16:52:40.709Z,29.23
2022-11-14T16:55:09.657Z,30.07
2022-11-14T16:57:37.177Z,24.37
2022-11-14T17:00:12.399Z,28.80
2022-11-14T17:02:42.583Z,26.30
2022-11-14T17:05:09.374Z,31.03
2022-11-14T17:07:35.835Z,26.03
2022-11-14T17:10:02.526Z,25.77
2022-11-14T17:12:29.002Z,27.50
2022-11-14T17:14:55.438Z,32.50
2022-11-14T17:17:22.129Z,25.97
2022-11-14T17:19:48.986Z,24.20
2022-11-14T17:22:17.386Z,24.33
2022-11-14T17:24:44.693Z,26.90
2022-11-14T17:27:12.895Z,25.50
2022-11-14T17:29:39.455Z,28.27
2022-11-14T17:32:05.958Z,22.63
2022-11-14T17:34:32.568Z,23.23
2022-11-14T17:36:59.108Z,24.23
2022-11-14T17:39:26.137Z,22.90
2022-11-14T17:41:52.534Z,27.10
2022-11-14T17:44:18.951Z,25.80
2022-11-14T17:46:47.667Z,24.77
2022-11-14T17:49:14.148Z,25.60
2022-11-14T17:51:40.682Z,23.00
2022-11-14T17:54:07.212Z,24.33
2022-11-14T17:56:33.750Z,26.33
2022-11-14T17:59:00.172Z,26.60
2022-11-14T18:01:26.775Z,24.33
2022-11-14T18:03:53.367Z,26.80
2022-11-14T18:06:20.987Z,24.90
2022-11-14T18:08:48.176Z,25.97
2022-11-14T18:11:17.023Z,23.67
2022-11-14T18:13:44.115Z,23.90
2022-11-14T18:16:12.795Z,24.40
2022-11-14T18:18:39.706Z,22.40
2022-11-14T18:21:08.860Z,22.33
2022-11-14T18:23:36.184Z,24.37
2022-11-14T18:26:13.614Z,23.70
2022-11-14T18:28:40.894Z,23.93
2022-11-14T18:31:10.512Z,24.47
2022-11-14T18:33:37.992Z,25.47
2022-11-14T18:36:08.780Z,27.20
2022-11-14T18:38:35.497Z,27.80
2022-11-14T18:41:03.829Z,21.87
2022-11-14T18:43:32.855Z,23.90
2022-11-14T18:46:12.719Z,24.77
2022-11-14T18:48:40.591Z,29.63
2022-11-14T18:51:11.027Z,23.23
2022-11-14T18:53:37.573Z,24.70
2022-11-14T18:56:05.830Z,22.20
2022-11-14T18:58:32.936Z,24.30
2022-11-14T19:01:21.819Z,21.97
2022-11-14T19:03:48.325Z,21.83
2022-11-14T19:06:15.216Z,20.60
2022-11-14T19:08:41.824Z,23.27
2022-11-14T19:11:31.596Z,22.13
2022-11-14T19:14:01.230Z,21.03
2022-11-14T19:16:28.141Z,20.53
2022-11-14T19:18:55.345Z,24.13
2022-11-14T19:21:21.839Z,24.87
2022-11-14T19:23:48.471Z,23.07
2022-11-14T19:26:14.872Z,21.83
2022-11-14T19:28:41.305Z,24.60
2022-11-14T19:31:08.256Z,23.13
2022-11-14T19:33:35.055Z,22.60
2022-11-14T19:36:06.662Z,26.70
2022-11-14T19:38:33.444Z,24.50
2022-11-14T19:41:26.571Z,25.07
2022-11-14T19:43:54.582Z,24.60
2022-11-14T19:46:25.313Z,22.50
2022-11-14T19:48:56.873Z,23.53
2022-11-14T19:51:24.459Z,23.70
2022-11-14T19:53:53.243Z,28.30
2022-11-14T19:56:20.765Z,30.60
2022-11-14T19:58:49.035Z,26.17
2022-11-14T20:01:21.035Z,27.90
2022-11-14T20:04:14.046Z,33.30
2022-11-14T20:06:41.599Z,23.97
2022-11-14T20:09:09.935Z,23.07
2022-11-14T20:11:36.986Z,22.77
2022-11-14T20:14:05.531Z,19.83
2022-11-14T20:16:34.708Z,34.13
2022-11-14T20:19:01.899Z,22.80
2022-11-14T20:21:30.680Z,20.17
2022-11-14T20:23:57.686Z,19.73
2022-11-14T20:26:24.670Z,23.83
2022-11-14T20:28:53.805Z,23.57
2022-11-14T20:31:23.058Z,25.73
2022-11-14T20:33:50.958Z,19.90
2022-11-14T20:36:20.694Z,22.23
2022-11-14T20:38:48.179Z,23.23
2022-11-14T20:41:15.279Z,22.20
2022-11-14T20:43:42.320Z,22.80
2022-11-14T20:46:14.547Z,22.73
2022-11-14T20:48:41.837Z,20.77
2022-11-14T20:51:14.677Z,20.93
2022-11-14T20:53:41.528Z,21.23
2022-11-14T20:56:09.087Z,20.43
2022-11-14T20:58:35.978Z,22.57
2022-11-14T21:01:02.830Z,21.50
2022-11-14T21:03:29.792Z,20.70
2022-11-14T21:05:56.679Z,20.87
2022-11-14T21:08:23.245Z,21.90
2022-11-14T21:10:50.723Z,22.60
2022-11-14T21:13:40.889Z,21.50
2022-11-14T21:16:13.002Z,20.53
2022-11-14T21:18:42.787Z,19.90
2022-11-14T21:21:17.136Z,21.67
2022-11-14T21:23:47.800Z,22.57
2022-11-14T21:26:22.784Z,20.57
2022-11-14T21:28:52.839Z,25.37
2022-11-14T21:31:27.823Z,18.80
2022-11-14T21:33:59.225Z,19.47
2022-11-14T21:39:15.048Z,21.33
2022-11-14T21:41:48.400Z,19.67
2022-11-14T21:44:18.551Z,21.07
2022-11-14T21:46:48.730Z,18.30
2022-11-14T21:49:15.850Z,17.60
2022-11-14T21:51:42.594Z,21.07
2022-11-14T21:54:09.791Z,17.20
2022-11-14T21:56:37.399Z,18.30
2022-11-14T21:59:16.146Z,18.87
2022-11-14T22:02:07.149Z,19.13
2022-11-14T22:04:34.552Z,18.30
2022-11-14T22:07:06.292Z,20.80
2022-11-14T22:09:33.619Z,18.77
2022-11-14T22:12:01.190Z,19.63
2022-11-14T22:14:29.320Z,18.00
2022-11-14T22:16:56.291Z,26.80
2022-11-14T22:19:23.381Z,20.00
2022-11-14T22:21:50.235Z,20.40
2022-11-14T22:24:16.765Z,18.63
2022-11-14T22:26:43.441Z,16.70
2022-11-14T22:29:10.167Z,18.43
2022-11-14T22:31:38.149Z,19.20
2022-11-14T22:34:05.518Z,17.23
2022-11-14T22:36:33.213Z,17.50
2022-11-14T22:38:59.804Z,20.03
2022-11-14T22:41:32.634Z,18.53
2022-11-14T22:44:00.204Z,20.33
2022-11-14T22:46:27.427Z,16.47
2022-11-14T22:48:54.623Z,19.00
2022-11-14T22:51:26.180Z,20.57
2022-11-14T22:53:55.158Z,18.00
2022-11-14T22:56:24.840Z,17.13
2022-11-14T22:58:51.940Z,18.90
2022-11-14T23:01:24.924Z,20.10
2022-11-14T23:04:01.021Z,16.93
2022-11-14T23:06:28.839Z,16.90
2022-11-14T23:08:55.923Z,22.03
2022-11-14T23:11:25.595Z,18.53
2022-11-14T23:13:54.255Z,16.87
2022-11-14T23:16:23.862Z,17.60
2022-11-14T23:18:51.308Z,15.53
2022-11-14T23:21:20.766Z,19.60
2022-11-14T23:23:52.758Z,22.10
2022-11-14T23:26:20.106Z,18.40
2022-11-14T23:28:46.537Z,16.70
2022-11-14T23:31:13.077Z,16.50
2022-11-14T23:33:39.516Z,18.10
2022-11-14T23:36:06.021Z,20.97
2022-11-14T23:38:32.432Z,18.80
2022-11-14T23:41:01.343Z,17.60
2022-11-14T23:43:29.294Z,20.30
2022-11-14T23:45:56.548Z,16.17
2022-11-14T23:48:23.469Z,19.13
2022-11-14T23:50:51.593Z,18.37
2022-11-14T23:53:18.071Z,18.20
2022-11-14T23:55:55.287Z,19.07
2022-11-14T23:58:23.364Z,18.87
